Time;durP1;ratioP1;P1;durP2;ratioP2;P2;SDS_P1;SDS_P2;PMS_P1;PMS_P2;Temp;Humidity;BMP_temperature;BMP_pressure;BME280_temperature;BME280_humidity;BME280_pressure;Samples;Min_cycle;Max_cycle;Signal;HPM_P1;HPM_P2
2021/09/19 00:03:30;;;;;;;11.82;10.65;;;24.90;54.70;;;;;;4748049;55;21073;-30
2021/09/19 00:08:31;;;;;;;11.95;10.65;;;25.00;54.80;;;;;;4742575;55;21117;-31
2021/09/19 00:13:31;;;;;;;12.50;11.20;;;24.90;54.70;;;;;;4775763;55;21073;-31
2021/09/19 00:18:32;;;;;;;12.07;10.82;;;24.90;54.80;;;;;;4741192;55;21041;-31
2021/09/19 00:23:33;;;;;;;11.95;10.75;;;24.90;54.70;;;;;;4747586;55;21112;-34
2021/09/19 00:28:34;;;;;;;11.35;10.25;;;24.90;54.80;;;;;;4732138;58;22444;-34
2021/09/19 00:33:35;;;;;;;11.75;10.55;;;24.90;54.70;;;;;;4827424;54;21061;-33
2021/09/19 00:38:36;;;;;;;11.38;10.20;;;25.00;54.90;;;;;;4759048;55;21682;-34
2021/09/19 00:43:37;;;;;;;11.18;10.07;;;24.90;54.90;;;;;;4751260;54;21016;-33
2021/09/19 00:48:38;;;;;;;11.35;9.98;;;24.90;54.80;;;;;;4740952;55;21077;-33
2021/09/19 00:53:41;;;;;;;11.20;10.10;;;24.90;54.80;;;;;;4737753;55;21065;-32
2021/09/19 00:58:43;;;;;;;12.05;10.80;;;24.90;54.80;;;;;;4739710;54;21104;-32
2021/09/19 01:03:44;;;;;;;11.07;9.98;;;25.00;55.60;;;;;;4755887;54;21006;-34
2021/09/19 01:08:46;;;;;;;10.80;9.77;;;24.90;54.90;;;;;;4733521;55;21053;-33
2021/09/19 01:13:48;;;;;;;10.93;9.85;;;24.90;54.80;;;;;;4744840;55;21041;-33
2021/09/19 01:18:49;;;;;;;10.85;9.70;;;24.90;54.90;;;;;;4846913;55;21073;-34
2021/09/19 01:24:02;;;;;;;10.10;9.13;;;24.90;54.90;;;;;;4765388;55;21065;-33
2021/09/19 01:29:06;;;;;;;10.60;9.60;;;24.90;54.90;;;;;;4749674;55;21061;-31
2021/09/19 01:34:07;;;;;;;10.32;9.32;;;24.90;54.90;;;;;;4764773;55;21566;-31
2021/09/19 01:39:09;;;;;;;11.12;10.02;;;24.90;55.00;;;;;;4754433;55;21008;-34
2021/09/19 01:44:10;;;;;;;10.00;9.00;;;24.90;54.90;;;;;;4731466;59;21009;-36
2021/09/19 01:49:11;;;;;;;10.45;9.45;;;24.90;54.90;;;;;;4744090;55;21013;-34
2021/09/19 01:54:12;;;;;;;10.02;9.02;;;24.90;55.00;;;;;;4761160;54;21030;-34
2021/09/19 01:59:13;;;;;;;9.50;8.60;;;24.90;55.00;;;;;;4731328;59;21440;-33
2021/09/19 02:04:14;;;;;;;9.68;8.55;;;24.90;55.00;;;;;;4740400;55;21941;-34
2021/09/19 02:09:14;;;;;;;10.45;8.98;;;24.90;55.00;;;;;;4740343;55;21041;-30
2021/09/19 02:14:15;;;;;;;9.63;8.73;;;24.90;55.00;;;;;;4739504;55;21049;-34
2021/09/19 02:19:16;;;;;;;10.27;9.15;;;24.90;55.00;;;;;;4741636;55;22276;-36
2021/09/19 02:24:17;;;;;;;9.02;8.23;;;24.90;55.00;;;;;;4768072;55;21029;-33
2021/09/19 02:29:18;;;;;;;8.82;7.93;;;24.90;55.10;;;;;;4741240;55;21009;-33
2021/09/19 02:34:19;;;;;;;9.20;8.40;;;24.90;55.00;;;;;;4764399;55;21001;-32
2021/09/19 02:39:20;;;;;;;9.55;8.60;;;24.90;55.00;;;;;;4744712;55;21072;-34
2021/09/19 02:44:20;;;;;;;9.07;8.27;;;24.90;55.00;;;;;;4731000;59;20994;-32
2021/09/19 02:49:21;;;;;;;9.15;8.25;;;24.90;55.00;;;;;;4736010;55;21100;-30
2021/09/19 02:54:22;;;;;;;8.82;7.95;;;24.90;55.00;;;;;;4731338;55;21038;-35
2021/09/19 02:59:23;;;;;;;8.70;7.90;;;24.90;55.00;;;;;;4732612;55;21048;-33
2021/09/19 03:04:24;;;;;;;9.27;8.35;;;24.90;55.00;;;;;;4734592;55;21045;-33
2021/09/19 03:09:24;;;;;;;8.50;7.70;;;24.90;55.00;;;;;;4731350;59;21048;-34
2021/09/19 03:14:26;;;;;;;8.40;7.60;;;24.90;55.00;;;;;;4730558;59;21042;-32
2021/09/19 03:19:26;;;;;;;8.30;7.32;;;24.90;55.00;;;;;;4735500;55;21013;-32
2021/09/19 03:24:27;;;;;;;8.60;7.80;;;24.90;55.00;;;;;;4747575;55;21077;-32
2021/09/19 03:29:29;;;;;;;10.02;8.23;;;24.90;55.00;;;;;;4731171;59;21029;-34
2021/09/19 03:34:33;;;;;;;7.95;7.15;;;24.90;55.00;;;;;;4745042;55;21025;-32
2021/09/19 03:39:34;;;;;;;8.63;7.82;;;24.80;54.90;;;;;;4771736;55;21464;-27
2021/09/19 03:44:35;;;;;;;8.35;7.53;;;24.80;55.00;;;;;;4738826;54;21065;-32
2021/09/19 03:49:36;;;;;;;8.38;7.53;;;24.80;54.90;;;;;;4741144;55;21582;-30
2021/09/19 03:54:37;;;;;;;7.57;6.87;;;24.80;54.90;;;;;;4741037;55;21049;-29
2021/09/19 03:59:39;;;;;;;8.10;7.30;;;24.80;54.80;;;;;;4803897;55;21012;-33
2021/09/19 04:04:40;;;;;;;8.20;7.40;;;24.90;54.90;;;;;;4732055;55;21607;-32
2021/09/19 04:09:41;;;;;;;7.82;7.12;;;24.80;54.90;;;;;;4745891;55;20986;-32
2021/09/19 04:14:42;;;;;;;7.10;6.45;;;24.80;54.80;;;;;;4758140;55;21080;-32
2021/09/19 04:19:42;;;;;;;7.90;7.10;;;24.80;54.80;;;;;;4755318;55;21051;-32
2021/09/19 04:24:43;;;;;;;7.57;6.87;;;24.80;54.80;;;;;;4743238;55;21017;-31
2021/09/19 04:29:44;;;;;;;7.50;6.70;;;24.80;54.70;;;;;;4731979;59;21060;-33
2021/09/19 04:34:45;;;;;;;7.72;7.00;;;24.80;54.70;;;;;;4755220;54;21036;-31
2021/09/19 04:39:46;;;;;;;7.40;6.70;;;24.80;54.70;;;;;;4760220;55;21065;-33
2021/09/19 04:44:47;;;;;;;7.30;6.70;;;24.80;55.30;;;;;;4801811;55;21017;-33
2021/09/19 04:49:48;;;;;;;7.72;7.03;;;24.80;54.70;;;;;;4733083;55;21025;-33
2021/09/19 04:54:49;;;;;;;7.85;6.62;;;24.80;54.60;;;;;;4747380;55;21087;-34
2021/09/19 04:59:50;;;;;;;6.90;6.30;;;24.80;54.60;;;;;;4766225;55;21009;-33
2021/09/19 05:04:50;;;;;;;7.28;6.57;;;24.80;54.60;;;;;;4788322;55;21065;-32
2021/09/19 05:09:51;;;;;;;7.87;7.07;;;24.80;54.60;;;;;;4739479;55;21519;-30
2021/09/19 05:14:55;;;;;;;6.70;6.10;;;24.70;54.50;;;;;;4730856;59;21030;-34
2021/09/19 05:19:56;;;;;;;7.55;6.72;;;24.80;54.50;;;;;;4738387;55;21529;-31
2021/09/19 05:24:56;;;;;;;7.20;6.50;;;24.70;54.50;;;;;;4756673;55;20997;-33
2021/09/19 05:29:58;;;;;;;6.75;6.10;;;24.70;54.50;;;;;;4801412;55;21017;-33
2021/09/19 05:34:59;;;;;;;6.80;6.10;;;24.70;54.40;;;;;;4767598;54;21025;-33
2021/09/19 05:40:00;;;;;;;5.95;5.45;;;24.80;54.50;;;;;;4779333;55;21487;-33
2021/09/19 05:45:01;;;;;;;6.35;5.75;;;24.70;54.50;;;;;;4793016;55;21017;-31
2021/09/19 05:50:03;;;;;;;6.22;5.62;;;24.70;54.40;;;;;;4779678;55;21539;-34
2021/09/19 05:55:05;;;;;;;6.60;5.95;;;24.70;54.40;;;;;;4732454;55;21037;-33
2021/09/19 06:00:07;;;;;;;6.68;5.97;;;24.70;54.30;;;;;;4735059;55;21013;-33
2021/09/19 06:05:10;;;;;;;7.80;6.10;;;24.70;54.30;;;;;;4764153;55;21009;-33
2021/09/19 06:10:11;;;;;;;6.72;5.93;;;24.70;54.30;;;;;;4732321;58;21527;-34
2021/09/19 06:15:12;;;;;;;7.05;6.40;;;24.70;54.30;;;;;;4731016;59;21038;-34
2021/09/19 06:20:13;;;;;;;6.70;6.10;;;24.70;54.30;;;;;;4737021;55;21021;-35
2021/09/19 06:25:14;;;;;;;6.55;5.95;;;24.70;54.10;;;;;;4731506;59;21009;-33
2021/09/19 06:30:15;;;;;;;7.43;6.07;;;24.70;54.10;;;;;;4731464;55;21044;-33
2021/09/19 06:35:15;;;;;;;8.18;6.68;;;24.70;54.10;;;;;;4737199;55;21017;-31
2021/09/19 06:40:16;;;;;;;7.45;6.00;;;24.70;54.10;;;;;;4739327;55;21008;-35
2021/09/19 06:45:17;;;;;;;6.85;6.00;;;24.70;54.10;;;;;;4731402;55;21560;-34
2021/09/19 06:50:18;;;;;;;6.40;5.80;;;24.70;54.10;;;;;;4731829;55;21009;-33
2021/09/19 06:55:19;;;;;;;6.40;5.80;;;24.70;54.00;;;;;;4764376;55;21021;-32
2021/09/19 07:00:20;;;;;;;6.75;6.07;;;24.70;54.00;;;;;;4733565;55;21020;-30
2021/09/19 07:05:21;;;;;;;7.40;6.70;;;24.70;54.00;;;;;;4731779;59;21002;-34
2021/09/19 07:10:22;;;;;;;7.53;6.15;;;24.70;54.00;;;;;;4741190;55;21518;-34
2021/09/19 07:15:23;;;;;;;7.00;6.37;;;24.70;54.10;;;;;;4732999;55;21120;-33
2021/09/19 07:20:23;;;;;;;7.43;6.20;;;24.60;54.00;;;;;;4731112;59;21089;-30
2021/09/19 07:25:24;;;;;;;6.60;5.97;;;24.60;54.00;;;;;;4741690;55;21479;-33
2021/09/19 07:30:25;;;;;;;7.15;6.15;;;24.60;53.90;;;;;;4757132;55;21037;-32
2021/09/19 07:35:27;;;;;;;7.43;6.20;;;24.60;54.00;;;;;;4730725;56;21025;-33
2021/09/19 07:40:28;;;;;;;7.20;6.50;;;24.60;54.00;;;;;;4741525;55;21025;-34
2021/09/19 07:45:29;;;;;;;9.73;7.35;;;24.70;54.00;;;;;;4758838;54;21040;-31
2021/09/19 07:50:30;;;;;;;7.40;6.72;;;24.60;53.90;;;;;;4731583;59;21013;-33
2021/09/19 07:55:32;;;;;;;7.22;6.53;;;24.60;54.00;;;;;;4735794;54;21140;-33
2021/09/19 08:00:33;;;;;;;7.80;7.00;;;24.60;53.90;;;;;;4732347;55;21479;-33
2021/09/19 08:05:34;;;;;;;8.43;7.10;;;24.60;54.00;;;;;;4731244;59;21057;-33
2021/09/19 08:10:35;;;;;;;8.43;7.62;;;24.70;54.00;;;;;;4774812;55;21056;-33
2021/09/19 08:15:35;;;;;;;8.57;7.20;;;24.60;54.00;;;;;;4764917;54;21515;-34
2021/09/19 08:20:36;;;;;;;8.35;7.55;;;24.70;54.00;;;;;;4735572;54;21016;-33
2021/09/19 08:25:37;;;;;;;8.23;7.18;;;24.70;54.10;;;;;;4754693;55;21555;-33
2021/09/19 08:30:38;;;;;;;9.55;8.13;;;24.60;54.00;;;;;;4747523;55;21616;-31
2021/09/19 08:35:39;;;;;;;9.55;8.27;;;24.60;54.10;;;;;;4743965;55;21025;-35
2021/09/19 08:40:39;;;;;;;8.75;7.80;;;24.60;54.00;;;;;;4731367;59;21073;-28
2021/09/19 08:45:44;;;;;;;9.32;8.43;;;24.60;54.10;;;;;;4777967;55;21004;-33
2021/09/19 08:50:48;;;;;;;10.13;8.98;;;24.60;54.10;;;;;;4759719;55;21009;-33
2021/09/19 08:55:49;;;;;;;10.77;8.93;;;24.60;54.00;;;;;;4730732;59;21025;-31
2021/09/19 09:00:51;;;;;;;9.88;8.88;;;24.60;54.10;;;;;;4757905;54;21178;-34
2021/09/19 09:06:03;;;;;;;9.93;8.93;;;24.60;54.10;;;;;;4748632;55;21052;-33
2021/09/19 09:11:06;;;;;;;9.65;8.50;;;24.60;54.10;;;;;;4765817;55;21523;-30
2021/09/19 09:16:17;;;;;;;10.73;8.82;;;24.60;54.10;;;;;;4753352;55;22053;-31
2021/09/19 09:21:30;;;;;;;11.15;8.82;;;24.60;54.10;;;;;;4733072;55;21001;-34
2021/09/19 09:26:40;;;;;;;12.30;9.63;;;24.60;54.10;;;;;;4755858;55;21128;-33
2021/09/19 09:31:44;;;;;;;11.32;10.13;;;24.60;54.20;;;;;;4732850;55;21595;-32
2021/09/19 09:36:57;;;;;;;10.65;9.63;;;24.60;54.20;;;;;;4749744;54;21032;-37
2021/09/19 09:42:09;;;;;;;11.12;10.02;;;24.60;54.20;;;;;;4731731;54;21479;-34
2021/09/19 09:47:16;;;;;;;11.00;9.80;;;24.60;54.30;;;;;;4748985;54;21045;-34
2021/09/19 09:52:38;;;;;;;10.45;9.23;;;24.60;54.30;;;;;;4752907;55;21523;-28
2021/09/19 09:58:24;;;;;;;11.40;9.75;;;24.60;54.30;;;;;;4757749;55;21029;-32
2021/09/19 10:03:25;;;;;;;11.27;9.77;;;24.60;54.30;;;;;;4749157;55;21187;-30
2021/09/19 10:08:26;;;;;;;11.63;10.02;;;24.60;54.30;;;;;;4742581;55;21500;-34
2021/09/19 10:13:27;;;;;;;13.13;11.38;;;24.60;54.30;;;;;;4730905;59;21547;-34
2021/09/19 10:18:28;;;;;;;10.98;9.88;;;24.60;54.30;;;;;;4764432;55;20993;-34
2021/09/19 10:23:32;;;;;;;12.02;10.15;;;24.60;54.30;;;;;;4756425;54;21013;-32
2021/09/19 10:28:42;;;;;;;12.23;10.48;;;24.60;54.30;;;;;;4738668;54;21013;-32
2021/09/19 10:33:58;;;;;;;11.57;10.20;;;24.60;54.40;;;;;;4757872;54;21028;-33
2021/09/19 10:39:51;;;;;;;11.32;10.15;;;24.60;54.40;;;;;;4750264;54;21543;-34
2021/09/19 10:44:57;;;;;;;12.07;10.75;;;24.60;54.40;;;;;;4735909;55;21091;-31
2021/09/19 10:50:35;;;;;;;12.53;9.67;;;24.60;54.40;;;;;;4745538;54;20997;-30
2021/09/19 10:55:54;;;;;;;11.35;10.15;;;24.60;54.40;;;;;;4734986;55;21602;-34
2021/09/19 11:01:25;;;;;;;11.45;10.18;;;24.60;54.40;;;;;;4736258;54;21480;-31
2021/09/19 11:06:31;;;;;;;11.85;10.65;;;24.60;54.40;;;;;;4740870;54;21100;-33
2021/09/19 11:11:32;;;;;;;11.85;10.40;;;24.60;54.40;;;;;;4748403;54;21486;-32
2021/09/19 11:16:36;;;;;;;12.82;11.48;;;24.60;54.50;;;;;;4755427;54;21109;-30
2021/09/19 11:21:43;;;;;;;12.07;10.77;;;24.60;54.40;;;;;;4749472;54;21206;-33
2021/09/19 11:26:47;;;;;;;11.50;10.35;;;24.60;54.50;;;;;;4739160;54;21057;-32
2021/09/19 11:31:48;;;;;;;10.88;9.77;;;24.60;54.50;;;;;;4731267;54;21037;-30
2021/09/19 11:36:56;;;;;;;11.77;10.57;;;24.60;54.50;;;;;;4765343;55;21463;-33
2021/09/19 11:41:57;;;;;;;11.90;10.70;;;24.60;54.50;;;;;;4731136;59;21092;-32
2021/09/19 11:46:58;;;;;;;12.05;10.85;;;24.60;54.50;;;;;;4749586;55;21099;-30
2021/09/19 11:51:59;;;;;;;12.15;10.80;;;24.60;54.60;;;;;;4731084;59;21567;-32
2021/09/19 11:57:00;;;;;;;12.20;10.90;;;24.60;54.60;;;;;;4730924;59;21477;-33
2021/09/19 12:02:03;;;;;;;11.68;10.57;;;24.60;54.50;;;;;;4750932;55;21029;-32
2021/09/19 12:07:04;;;;;;;10.98;9.90;;;24.60;54.50;;;;;;4748069;55;21607;-32
2021/09/19 12:12:12;;;;;;;12.30;10.95;;;24.60;54.60;;;;;;4731201;59;21120;-32
2021/09/19 12:17:14;;;;;;;11.25;10.05;;;24.60;54.60;;;;;;4758156;54;21109;-30
2021/09/19 12:22:23;;;;;;;12.45;11.15;;;24.60;54.60;;;;;;4752163;54;21440;-33
2021/09/19 12:27:33;;;;;;;11.38;10.07;;;24.60;54.60;;;;;;4749027;54;21510;-33
2021/09/19 12:32:51;;;;;;;11.88;10.05;;;24.60;54.60;;;;;;4744975;54;21499;-32
2021/09/19 12:37:56;;;;;;;12.63;10.48;;;24.60;54.60;;;;;;4732019;54;21081;-32
2021/09/19 12:43:14;;;;;;;11.27;10.18;;;24.60;54.60;;;;;;4732255;58;21083;-31
2021/09/19 12:48:21;;;;;;;11.77;10.57;;;24.60;54.60;;;;;;4773455;54;21045;-33
2021/09/19 12:53:27;;;;;;;11.93;10.35;;;24.60;54.60;;;;;;4739647;54;21511;-36
2021/09/19 12:58:28;;;;;;;11.37;10.27;;;24.60;54.60;;;;;;4732233;54;21492;-33
2021/09/19 13:03:29;;;;;;;11.25;10.10;;;24.60;54.60;;;;;;4732438;54;21028;-34
2021/09/19 13:08:30;;;;;;;11.35;10.15;;;24.60;54.60;;;;;;4732432;55;21020;-31
2021/09/19 13:13:31;;;;;;;11.70;10.50;;;24.70;54.70;;;;;;4732729;55;21058;-33
2021/09/19 13:18:31;;;;;;;11.40;10.05;;;24.70;54.70;;;;;;4733499;54;21040;-33
2021/09/19 13:23:32;;;;;;;12.60;10.80;;;24.60;54.60;;;;;;4733631;55;21032;-35
2021/09/19 13:28:33;;;;;;;11.50;10.30;;;24.60;54.60;;;;;;4735469;55;21082;-34
2021/09/19 13:33:34;;;;;;;11.23;10.10;;;24.70;54.70;;;;;;4782327;54;21056;-34
2021/09/19 13:38:35;;;;;;;11.23;10.13;;;24.60;54.70;;;;;;4731604;55;20997;-32
2021/09/19 13:43:36;;;;;;;12.18;10.35;;;24.70;54.70;;;;;;4735766;55;21575;-30
2021/09/19 13:48:37;;;;;;;11.27;10.18;;;24.60;54.70;;;;;;4769869;54;21003;-34
2021/09/19 13:53:38;;;;;;;11.32;10.13;;;24.60;54.70;;;;;;4778722;54;21029;-32
2021/09/19 13:58:39;;;;;;;11.98;10.77;;;24.60;54.70;;;;;;4750872;54;21046;-33
2021/09/19 14:03:40;;;;;;;12.07;10.88;;;24.60;54.70;;;;;;4759934;54;21081;-34
2021/09/19 14:08:40;;;;;;;12.10;10.90;;;24.60;54.70;;;;;;4731812;55;21540;-32
2021/09/19 14:13:41;;;;;;;11.60;10.40;;;24.60;54.70;;;;;;4772356;54;21527;-34
2021/09/19 14:18:42;;;;;;;12.73;11.43;;;24.70;54.80;;;;;;4737438;55;21009;-33
2021/09/19 14:23:43;;;;;;;12.32;10.70;;;24.70;54.80;;;;;;4739315;54;21005;-34
2021/09/19 14:28:45;;;;;;;11.68;10.50;;;24.60;54.70;;;;;;4740910;55;21525;-34
2021/09/19 14:33:46;;;;;;;12.10;10.80;;;24.70;54.70;;;;;;4730999;59;21093;-33
2021/09/19 14:38:46;;;;;;;12.10;10.85;;;24.70;54.80;;;;;;4738244;55;21068;-33
2021/09/19 14:43:47;;;;;;;12.40;11.10;;;24.70;54.70;;;;;;4739403;55;21017;-33
2021/09/19 14:48:49;;;;;;;12.43;11.12;;;24.70;54.80;;;;;;4735183;55;21092;-31
2021/09/19 14:53:50;;;;;;;13.10;11.52;;;24.70;54.80;;;;;;4730638;59;21104;-35
2021/09/19 14:58:51;;;;;;;11.93;10.75;;;24.70;54.80;;;;;;4739315;54;21012;-34
2021/09/19 15:03:51;;;;;;;12.55;11.25;;;24.70;54.80;;;;;;4731626;59;21021;-34
2021/09/19 15:08:52;;;;;;;12.35;11.10;;;24.70;54.80;;;;;;4755399;55;21038;-33
2021/09/19 15:13:53;;;;;;;12.88;11.55;;;24.70;54.80;;;;;;4740392;55;21055;-32
2021/09/19 15:18:54;;;;;;;12.85;11.38;;;24.70;54.80;;;;;;4736199;54;20985;-32
2021/09/19 15:23:55;;;;;;;12.90;11.60;;;24.70;54.80;;;;;;4748946;55;21006;-29
2021/09/19 15:28:55;;;;;;;11.50;10.40;;;24.70;54.90;;;;;;4731821;55;21528;-34
2021/09/19 15:33:56;;;;;;;12.07;10.85;;;24.70;54.80;;;;;;4757133;55;21072;-30
2021/09/19 15:38:57;;;;;;;12.13;10.93;;;24.70;54.80;;;;;;4731240;59;21005;-33
2021/09/19 15:43:58;;;;;;;13.27;11.65;;;24.70;54.80;;;;;;4731896;56;20993;-34
2021/09/19 15:49:01;;;;;;;11.95;10.75;;;24.70;54.80;;;;;;4733609;55;21032;-24
2021/09/19 15:54:02;;;;;;;12.45;11.15;;;24.70;54.80;;;;;;4739960;54;21017;-31
2021/09/19 15:59:03;;;;;;;13.15;11.85;;;24.70;54.80;;;;;;4741147;55;21468;-32
2021/09/19 16:04:04;;;;;;;12.73;11.43;;;24.70;54.80;;;;;;4731134;59;21017;-32
2021/09/19 16:09:05;;;;;;;12.90;11.60;;;24.70;54.80;;;;;;4739958;55;21444;-33
2021/09/19 16:14:06;;;;;;;12.98;11.57;;;24.70;54.80;;;;;;4743891;55;21088;-33
2021/09/19 16:19:07;;;;;;;11.75;10.55;;;24.70;54.80;;;;;;4731376;59;21512;-30
2021/09/19 16:24:08;;;;;;;13.13;11.05;;;24.70;54.90;;;;;;4762578;55;21086;-31
2021/09/19 16:29:09;;;;;;;11.95;10.75;;;24.70;54.90;;;;;;4732549;56;21050;-33
2021/09/19 16:34:09;;;;;;;13.05;11.75;;;24.70;54.90;;;;;;4741323;55;21020;-33
2021/09/19 16:39:10;;;;;;;12.52;10.98;;;24.70;54.90;;;;;;4743823;55;21048;-33
2021/09/19 16:44:11;;;;;;;12.00;10.80;;;24.70;54.90;;;;;;4748925;55;21017;-31
2021/09/19 16:49:12;;;;;;;12.93;11.60;;;24.70;54.90;;;;;;4731852;59;21072;-30
2021/09/19 16:54:13;;;;;;;12.35;11.15;;;24.70;54.90;;;;;;4776591;55;21133;-33
2021/09/19 16:59:15;;;;;;;12.43;11.23;;;24.70;54.90;;;;;;4787153;54;21490;-33
2021/09/19 17:04:16;;;;;;;12.90;11.60;;;24.70;54.90;;;;;;4743616;55;21488;-30
2021/09/19 17:09:16;;;;;;;12.88;11.57;;;24.70;55.00;;;;;;4757663;55;21040;-35
2021/09/19 17:14:17;;;;;;;12.50;11.25;;;24.70;54.90;;;;;;4745981;55;21554;-35
2021/09/19 17:19:18;;;;;;;12.82;11.52;;;24.70;54.90;;;;;;4746178;54;21078;-29
2021/09/19 17:24:19;;;;;;;12.68;11.38;;;24.70;54.90;;;;;;4746507;55;21072;-31
2021/09/19 17:29:20;;;;;;;12.35;11.15;;;24.70;54.90;;;;;;4747874;55;21065;-31
2021/09/19 17:34:21;;;;;;;12.85;11.55;;;24.70;54.90;;;;;;4731017;59;21572;-34
2021/09/19 17:39:21;;;;;;;13.27;11.10;;;24.70;54.90;;;;;;4742337;54;21118;-32
2021/09/19 17:44:22;;;;;;;12.30;11.10;;;24.70;54.90;;;;;;4748224;55;21033;-33
2021/09/19 17:49:23;;;;;;;12.15;10.90;;;24.70;54.90;;;;;;4743968;55;21041;-33
2021/09/19 17:54:25;;;;;;;13.13;11.73;;;24.70;54.90;;;;;;4731098;59;21574;-33
2021/09/19 17:59:26;;;;;;;12.85;11.40;;;24.70;55.00;;;;;;4749760;55;21037;-31
2021/09/19 18:04:29;;;;;;;12.20;11.00;;;24.70;55.00;;;;;;4735745;54;21040;-34
2021/09/19 18:09:29;;;;;;;12.82;11.52;;;24.70;55.00;;;;;;4731980;59;21524;-33
2021/09/19 18:14:30;;;;;;;12.63;11.32;;;24.70;55.70;;;;;;4794346;55;21105;-31
2021/09/19 18:19:31;;;;;;;12.02;10.82;;;24.70;55.00;;;;;;4731523;59;21092;-31
2021/09/19 18:24:32;;;;;;;11.82;10.65;;;24.70;55.00;;;;;;4740344;54;21005;-32
2021/09/19 18:29:33;;;;;;;13.30;11.90;;;24.70;55.10;;;;;;4747221;54;20998;-35
2021/09/19 18:34:34;;;;;;;12.18;10.95;;;24.70;55.10;;;;;;4739603;55;21148;-31
2021/09/19 18:39:35;;;;;;;13.48;12.18;;;24.70;55.10;;;;;;4739548;55;21418;-34
2021/09/19 18:44:36;;;;;;;12.55;11.30;;;24.70;55.10;;;;;;4770649;55;21130;-31
2021/09/19 18:49:37;;;;;;;12.55;11.25;;;24.70;55.10;;;;;;4745129;55;21096;-35
2021/09/19 18:54:41;;;;;;;12.57;11.27;;;24.70;55.10;;;;;;4736530;54;21110;-33
2021/09/19 18:59:42;;;;;;;12.80;11.50;;;24.70;55.10;;;;;;4744161;54;21579;-32
2021/09/19 19:04:43;;;;;;;11.88;10.68;;;24.70;55.10;;;;;;4734878;54;21049;-32
2021/09/19 19:09:44;;;;;;;12.65;11.35;;;24.70;55.10;;;;;;4736452;55;21532;-31
2021/09/19 19:14:44;;;;;;;13.20;11.80;;;24.70;55.20;;;;;;4744521;55;21045;-31
2021/09/19 19:19:45;;;;;;;12.65;11.45;;;24.70;55.20;;;;;;4756345;55;20997;-31
2021/09/19 19:24:46;;;;;;;12.80;11.50;;;24.70;55.80;;;;;;4779089;55;21081;-33
2021/09/19 19:29:48;;;;;;;13.23;11.82;;;24.70;55.20;;;;;;4742931;55;21005;-34
2021/09/19 19:34:49;;;;;;;12.85;11.43;;;24.70;55.20;;;;;;4754508;55;21017;-32
2021/09/19 19:39:50;;;;;;;12.82;11.52;;;24.70;55.20;;;;;;4818435;54;21054;-33
2021/09/19 19:44:51;;;;;;;12.68;11.43;;;24.70;55.20;;;;;;4731023;59;21036;-32
2021/09/19 19:49:52;;;;;;;12.07;10.90;;;24.70;55.20;;;;;;4740244;54;21001;-33
2021/09/19 19:54:52;;;;;;;12.60;11.23;;;24.70;55.20;;;;;;4785528;55;21033;-34
2021/09/19 19:59:53;;;;;;;12.70;11.35;;;24.70;55.20;;;;;;4819608;54;21507;-32
2021/09/19 20:04:54;;;;;;;12.65;11.32;;;24.70;55.20;;;;;;4735940;55;21088;-32
2021/09/19 20:09:55;;;;;;;12.60;11.30;;;24.70;55.80;;;;;;4732479;55;21081;-33
2021/09/19 20:14:56;;;;;;;12.43;11.12;;;24.70;55.20;;;;;;4772694;54;21575;-33
2021/09/19 20:20:01;;;;;;;11.82;10.63;;;24.70;55.30;;;;;;4737518;55;21119;-31
2021/09/19 20:25:04;;;;;;;12.73;11.00;;;24.70;55.20;;;;;;4739362;55;21511;-31
2021/09/19 20:30:08;;;;;;;12.30;11.10;;;24.70;55.20;;;;;;4760294;54;21006;-33
2021/09/19 20:35:10;;;;;;;11.50;10.38;;;24.70;55.20;;;;;;4730796;59;22305;-34
2021/09/19 20:40:11;;;;;;;11.90;10.70;;;24.70;55.20;;;;;;4746521;54;20994;-32
2021/09/19 20:45:13;;;;;;;12.75;11.43;;;24.70;55.20;;;;;;4735593;55;21065;-30
2021/09/19 20:50:15;;;;;;;11.98;10.77;;;24.70;55.20;;;;;;4776956;54;21076;-33
2021/09/19 20:55:16;;;;;;;12.88;10.77;;;24.70;55.20;;;;;;4775842;54;21022;-32
2021/09/19 21:00:17;;;;;;;12.00;10.80;;;24.70;55.20;;;;;;4734596;54;21065;-34
2021/09/19 21:05:18;;;;;;;11.50;10.30;;;24.70;55.20;;;;;;4738823;55;21507;-33
2021/09/19 21:10:18;;;;;;;12.32;11.02;;;24.70;55.20;;;;;;4752675;55;21066;-34
2021/09/19 21:15:19;;;;;;;11.48;10.38;;;24.70;55.30;;;;;;4744459;55;21596;-32
2021/09/19 21:20:20;;;;;;;12.48;10.52;;;24.70;55.30;;;;;;4772650;55;21018;-32
2021/09/19 21:25:21;;;;;;;12.52;11.23;;;24.70;55.30;;;;;;4797664;55;21017;-32
2021/09/19 21:30:22;;;;;;;11.88;10.15;;;24.70;55.30;;;;;;4755049;55;20993;-32
2021/09/19 21:35:23;;;;;;;11.05;9.73;;;24.70;55.30;;;;;;4751438;54;21073;-31
2021/09/19 21:40:23;;;;;;;12.23;10.57;;;24.70;55.30;;;;;;4744703;54;21010;-27
2021/09/19 21:45:27;;;;;;;11.45;10.25;;;24.70;55.30;;;;;;4737433;55;21064;-29
2021/09/19 21:50:29;;;;;;;11.07;9.98;;;24.70;55.30;;;;;;4731352;54;21642;-35
2021/09/19 21:55:30;;;;;;;10.82;9.77;;;24.70;55.30;;;;;;4747986;55;21488;-33
2021/09/19 22:00:40;;;;;;;13.07;10.27;;;24.70;55.30;;;;;;4740759;55;21060;-30
2021/09/19 22:05:43;;;;;;;11.80;10.23;;;24.70;55.30;;;;;;4731889;55;21001;-32
2021/09/19 22:10:44;;;;;;;11.52;9.80;;;24.70;55.30;;;;;;4773567;54;21124;-31
2021/09/19 22:15:45;;;;;;;11.12;10.02;;;24.70;55.30;;;;;;4731582;55;21570;-32
2021/09/19 22:20:46;;;;;;;11.52;10.35;;;24.70;55.30;;;;;;4755911;55;21101;-33
2021/09/19 22:25:47;;;;;;;11.90;10.70;;;24.70;55.30;;;;;;4731191;59;21061;-34
2021/09/19 22:30:47;;;;;;;11.10;10.00;;;24.70;55.30;;;;;;4735422;55;21566;-30
2021/09/19 22:35:48;;;;;;;11.02;9.90;;;24.70;55.30;;;;;;4730404;59;21033;-32
2021/09/19 22:40:49;;;;;;;10.77;9.65;;;24.70;55.30;;;;;;4734527;55;21016;-34
2021/09/19 22:45:50;;;;;;;11.00;9.90;;;24.70;55.30;;;;;;4797341;55;21464;-34
2021/09/19 22:50:51;;;;;;;10.45;9.45;;;24.70;55.30;;;;;;4732648;55;21081;-32
2021/09/19 22:55:52;;;;;;;11.18;10.05;;;24.70;55.30;;;;;;4761687;55;21096;-32
2021/09/19 23:00:57;;;;;;;10.55;9.55;;;24.70;55.30;;;;;;4731824;59;21065;-34
2021/09/19 23:05:58;;;;;;;10.88;9.77;;;24.70;55.30;;;;;;4748274;55;21006;-31
2021/09/19 23:10:59;;;;;;;11.48;10.35;;;24.70;55.40;;;;;;4780902;54;20990;-32
2021/09/19 23:16:00;;;;;;;10.73;9.63;;;24.70;55.30;;;;;;4750971;54;21145;-31
2021/09/19 23:21:00;;;;;;;10.50;9.50;;;24.70;55.30;;;;;;4751143;55;21475;-30
2021/09/19 23:26:01;;;;;;;10.95;9.85;;;24.70;55.30;;;;;;4732149;55;21017;-33
2021/09/19 23:31:03;;;;;;;10.65;9.55;;;24.70;55.30;;;;;;4761639;55;21025;-31
2021/09/19 23:36:04;;;;;;;10.48;9.32;;;24.70;55.30;;;;;;4776863;55;21025;-33
2021/09/19 23:41:05;;;;;;;10.52;9.43;;;24.70;55.40;;;;;;4732117;59;21054;-34
2021/09/19 23:46:06;;;;;;;10.55;9.52;;;24.70;55.40;;;;;;4736519;55;21346;-32
2021/09/19 23:51:07;;;;;;;10.88;9.88;;;24.70;55.40;;;;;;4748030;55;21081;-31
2021/09/19 23:56:08;;;;;;;10.60;9.50;;;24.70;55.40;;;;;;4731339;55;21555;-33
